Mill Iron, Montana
Current Conditions -  °F | °C
As of 12:51 AM on Thursday 23 Oct 2014 (Local Time) from KBHK Reporting Station
Clear Clear  
Wind Chill: 36°   Ceiling: Unl
Heat Index: 36°   Visibility: 10mi
Dew Point: 28°   Wind: 0mph
Humidity: 73%   Direction: NA
Pressure: 29.93"   Gusts: NA
Location:  45.8804°N, 104.499°W
Report Text: KBHK 230651Z AUTO 00000KT 10SM CLR 02/M02 A2993 RMK AO2 SLP138 T00221022 401670011
Loading
Personal Weather Stations






























Interactive Weather Map
Tropical Storm Tracking
New forecast layout! Learn more

10-Day Weather Forecast

Advertisements
Track Severe Weather on mobile